Time;durP1;ratioP1;P1;durP2;ratioP2;P2;SDS_P1;SDS_P2;PMS_P1;PMS_P2;Temp;Humidity;BMP_temperature;BMP_pressure;BME280_temperature;BME280_humidity;BME280_pressure;Samples;Min_cycle;Max_cycle;Signal;HPM_P1;HPM_P2
2023/10/14 00:04:29;;;;;;;7.10;4.45;;;19.20;82.60;;;;;;10472467;28;20051;-59
2023/10/14 00:09:33;;;;;;;6.55;4.05;;;19.20;82.60;;;;;;10488982;28;20043;-60
2023/10/14 00:14:34;;;;;;;7.15;4.10;;;19.20;82.50;;;;;;10495551;28;20384;-60
2023/10/14 00:19:35;;;;;;;6.47;3.60;;;19.20;82.50;;;;;;10477098;28;20044;-59
2023/10/14 00:24:39;;;;;;;6.85;3.67;;;19.20;82.50;;;;;;10495469;28;20111;-59
2023/10/14 00:29:41;;;;;;;8.05;4.65;;;19.20;82.50;;;;;;10481823;28;20028;-60
2023/10/14 00:34:42;;;;;;;5.85;3.33;;;19.20;82.50;;;;;;10489484;28;20767;-59
2023/10/14 00:39:43;;;;;;;6.82;4.00;;;19.20;82.40;;;;;;10493652;28;20435;-60
2023/10/14 00:44:44;;;;;;;5.78;3.70;;;19.10;82.40;;;;;;10494445;28;20043;-59
2023/10/14 00:49:45;;;;;;;7.13;3.65;;;19.10;82.30;;;;;;10493618;28;20068;-60
2023/10/14 00:55:12;;;;;;;4.50;3.53;;;19.10;82.20;;;;;;10482395;28;20384;-60
2023/10/14 01:00:22;;;;;;;5.22;3.30;;;19.10;82.20;;;;;;10475631;28;20041;-59
2023/10/14 01:05:23;;;;;;;5.53;2.85;;;19.10;82.20;;;;;;10488620;28;20025;-60
2023/10/14 01:10:25;;;;;;;6.43;3.45;;;19.10;82.70;;;;;;10492478;28;20021;-60
2023/10/14 01:15:30;;;;;;;5.95;3.58;;;19.10;82.10;;;;;;10493193;28;20036;-60
2023/10/14 01:20:38;;;;;;;5.10;3.45;;;19.10;82.00;;;;;;10478971;28;20025;-60
2023/10/14 01:25:46;;;;;;;4.10;2.90;;;19.10;82.00;;;;;;10492869;28;20069;-60
2023/10/14 01:36:32;;;;;;;3.67;3.00;;;19.10;81.90;;;;;;10475802;28;20041;-59
2023/10/14 01:41:34;;;;;;;4.50;2.78;;;19.10;82.40;;;;;;10490898;28;20625;-60
2023/10/14 01:46:44;;;;;;;5.70;2.97;;;19.10;81.80;;;;;;10492173;28;20024;-60
2023/10/14 01:51:49;;;;;;;5.13;2.88;;;19.00;82.30;;;;;;10491760;28;20035;-60
2023/10/14 01:56:51;;;;;;;5.38;3.42;;;19.00;81.60;;;;;;10485182;28;20029;-60
2023/10/14 02:01:57;;;;;;;3.95;2.70;;;19.00;81.60;;;;;;10491515;28;20029;-59
2023/10/14 02:07:14;;;;;;;5.03;3.00;;;19.00;81.60;;;;;;10491562;28;20112;-60
2023/10/14 02:12:15;;;;;;;5.18;3.92;;;19.00;81.60;;;;;;10491013;28;20025;-59
2023/10/14 02:17:16;;;;;;;5.05;2.95;;;19.00;81.70;;;;;;10491446;28;20057;-60
2023/10/14 02:22:23;;;;;;;4.25;2.40;;;19.00;81.50;;;;;;10484826;28;20047;-59
2023/10/14 02:27:24;;;;;;;4.40;2.83;;;19.00;81.50;;;;;;10491354;28;20029;-60
2023/10/14 02:32:26;;;;;;;5.57;2.67;;;19.00;81.40;;;;;;10488174;28;20035;-60
2023/10/14 02:37:27;;;;;;;4.30;2.80;;;19.00;81.40;;;;;;10504135;28;20032;-60
2023/10/14 02:42:28;;;;;;;3.90;2.63;;;19.00;81.40;;;;;;10503879;28;20024;-60
2023/10/14 02:47:32;;;;;;;4.82;2.70;;;19.00;81.40;;;;;;10504499;28;20025;-60
2023/10/14 02:52:38;;;;;;;5.38;2.60;;;19.00;81.40;;;;;;10486075;28;20074;-60
2023/10/14 02:57:39;;;;;;;4.50;3.00;;;19.00;81.30;;;;;;10487089;28;20043;-60
2023/10/14 03:02:48;;;;;;;4.70;3.03;;;19.00;81.20;;;;;;10497412;28;20043;-59
2023/10/14 03:07:52;;;;;;;;;;;19.00;81.20;;;;;;10502005;28;20027;-60
2023/10/14 03:12:52;;;;;;;3.65;2.53;;;19.00;81.10;;;;;;10498348;28;19927;-60
2023/10/14 03:17:58;;;;;;;4.15;2.55;;;19.00;81.10;;;;;;10503870;28;20047;-60
2023/10/14 03:23:19;;;;;;;5.25;2.97;;;19.00;81.00;;;;;;10503581;28;20037;-60
2023/10/14 03:28:23;;;;;;;3.80;2.38;;;18.90;80.90;;;;;;10503877;28;20028;-60
2023/10/14 03:33:29;;;;;;;4.65;2.47;;;18.90;80.90;;;;;;10498486;28;20675;-59
2023/10/14 03:43:44;;;;;;;4.45;3.03;;;18.90;80.70;;;;;;10512658;28;20357;-60
2023/10/14 03:48:48;;;;;;;3.47;2.00;;;18.90;80.70;;;;;;10478975;28;20036;-59
2023/10/14 03:53:52;;;;;;;3.97;2.47;;;18.90;80.70;;;;;;10486592;28;20025;-59
2023/10/14 03:59:00;;;;;;;3.72;2.90;;;18.90;80.60;;;;;;10485692;28;20032;-60
2023/10/14 04:04:14;;;;;;;5.10;2.33;;;18.90;80.60;;;;;;10473532;28;20032;-60
2023/10/14 04:09:22;;;;;;;3.88;2.60;;;18.90;80.50;;;;;;10498627;28;20039;-59
2023/10/14 04:14:27;;;;;;;3.53;2.00;;;18.90;80.50;;;;;;10495024;28;20033;-59
2023/10/14 04:19:42;;;;;;;4.38;2.35;;;18.90;80.50;;;;;;10471723;28;20051;-60
2023/10/14 04:24:46;;;;;;;3.50;2.33;;;18.90;80.40;;;;;;10485885;28;20123;-59
2023/10/14 04:29:57;;;;;;;5.50;2.88;;;18.90;80.90;;;;;;10491261;28;20017;-59
2023/10/14 04:35:02;;;;;;;3.95;2.33;;;18.80;80.30;;;;;;10468001;28;20035;-59
2023/10/14 04:40:15;;;;;;;4.03;2.88;;;18.90;80.30;;;;;;10470176;28;20032;-58
2023/10/14 04:45:16;;;;;;;3.90;2.90;;;18.90;80.20;;;;;;10493605;28;20566;-59
2023/10/14 04:50:22;;;;;;;8.45;1.73;;;18.90;80.80;;;;;;10494356;28;20059;-59
2023/10/14 05:00:32;;;;;;;4.95;2.17;;;18.80;80.20;;;;;;10486549;28;20496;-60
2023/10/14 05:05:33;;;;;;;6.43;2.83;;;18.80;80.40;;;;;;10486302;28;20098;-58
2023/10/14 05:10:34;;;;;;;5.78;2.08;;;18.90;80.60;;;;;;10493708;28;20694;-60
2023/10/14 05:15:43;;;;;;;6.78;2.60;;;18.90;80.30;;;;;;10492687;28;20040;-57
2023/10/14 05:20:55;;;;;;;12.13;3.35;;;19.00;80.80;;;;;;10492217;28;20125;-57
2023/10/14 05:25:59;;;;;;;6.80;2.42;;;19.10;80.70;;;;;;10452529;28;20048;-58
2023/10/14 05:31:00;;;;;;;5.70;2.22;;;19.20;80.50;;;;;;10487907;28;20021;-55
2023/10/14 05:36:03;;;;;;;7.35;2.80;;;19.20;80.70;;;;;;10488284;28;20025;-54
2023/10/14 05:41:09;;;;;;;4.95;2.53;;;19.10;80.70;;;;;;10500577;28;20085;-58
2023/10/14 05:46:12;;;;;;;7.35;2.25;;;19.10;80.60;;;;;;10487265;28;20032;-56
2023/10/14 05:51:15;;;;;;;11.07;3.13;;;19.10;80.60;;;;;;10468262;28;20074;-57
2023/10/14 05:56:16;;;;;;;8.10;2.67;;;19.00;80.30;;;;;;10497738;28;20032;-56
2023/10/14 06:01:17;;;;;;;7.38;2.50;;;19.00;80.30;;;;;;10489503;28;20033;-56
2023/10/14 06:06:21;;;;;;;8.50;3.00;;;18.90;80.40;;;;;;10471433;28;20025;-56
2023/10/14 06:11:22;;;;;;;6.28;2.47;;;18.90;80.50;;;;;;10495511;28;20024;-57
2023/10/14 06:16:25;;;;;;;8.20;2.50;;;18.90;80.30;;;;;;10489021;28;20415;-57
2023/10/14 06:21:27;;;;;;;9.02;2.42;;;18.90;80.20;;;;;;10490448;28;20040;-57
2023/10/14 06:26:28;;;;;;;8.75;2.15;;;18.80;80.20;;;;;;10471843;28;20052;-57
2023/10/14 06:31:28;;;;;;;4.88;1.95;;;18.80;80.00;;;;;;10487738;28;20056;-56
2023/10/14 06:36:29;;;;;;;8.00;2.20;;;18.80;80.00;;;;;;10479175;28;20472;-59
2023/10/14 06:41:30;;;;;;;8.73;2.10;;;18.80;80.00;;;;;;10501978;28;20513;-59
2023/10/14 06:46:30;;;;;;;5.78;2.20;;;18.80;79.90;;;;;;10489151;28;20368;-59
2023/10/14 06:51:31;;;;;;;6.78;1.88;;;18.80;79.90;;;;;;10471834;28;20399;-59
2023/10/14 06:56:33;;;;;;;4.68;1.77;;;18.80;79.90;;;;;;10494858;28;20442;-58
2023/10/14 07:01:34;;;;;;;6.80;2.20;;;18.80;79.90;;;;;;10478846;28;20468;-59
2023/10/14 07:06:37;;;;;;;4.57;2.13;;;18.70;79.90;;;;;;10489727;28;20754;-60
2023/10/14 07:11:39;;;;;;;3.97;1.85;;;18.70;79.90;;;;;;10488612;28;20086;-56
2023/10/14 07:16:42;;;;;;;4.43;2.08;;;18.70;80.00;;;;;;10490165;28;20080;-57
2023/10/14 07:21:43;;;;;;;6.18;2.00;;;18.80;79.80;;;;;;10496928;28;20112;-57
2023/10/14 07:26:44;;;;;;;4.63;1.67;;;18.80;79.90;;;;;;10496169;28;20036;-56
2023/10/14 07:31:44;;;;;;;5.95;1.80;;;18.70;79.70;;;;;;10496252;28;20579;-56
2023/10/14 07:36:45;;;;;;;4.70;1.90;;;18.70;79.70;;;;;;10477820;28;20137;-55
2023/10/14 07:41:52;;;;;;;4.95;1.55;;;18.70;80.00;;;;;;10507776;28;20107;-57
2023/10/14 07:46:54;;;;;;;10.35;2.35;;;18.80;79.60;;;;;;10473766;28;20025;-56
2023/10/14 07:52:00;;;;;;;9.00;2.55;;;18.80;78.50;;;;;;10495238;28;20032;-56
2023/10/14 07:57:02;;;;;;;22.67;4.40;;;18.80;78.20;;;;;;10483860;28;20098;-56
2023/10/14 08:02:03;;;;;;;11.80;2.92;;;18.90;78.20;;;;;;10493604;28;20024;-56
2023/10/14 08:07:06;;;;;;;8.75;3.20;;;19.00;78.30;;;;;;10494405;28;20029;-58
2023/10/14 08:12:06;;;;;;;10.88;2.88;;;19.00;78.30;;;;;;10496807;28;20024;-57
2023/10/14 08:17:11;;;;;;;19.42;3.30;;;19.10;78.20;;;;;;10489837;28;20515;-57
2023/10/14 08:22:14;;;;;;;21.25;3.47;;;19.10;78.10;;;;;;10494622;28;20035;-58
2023/10/14 08:27:16;;;;;;;36.90;5.50;;;19.10;78.10;;;;;;10493460;28;20053;-58
2023/10/14 08:32:18;;;;;;;24.38;4.90;;;19.10;78.50;;;;;;10489889;28;20033;-56
2023/10/14 08:37:18;;;;;;;34.97;4.72;;;19.10;78.50;;;;;;10493463;28;20050;-57
2023/10/14 08:42:23;;;;;;;60.20;7.28;;;19.30;77.90;;;;;;10505847;28;20036;-57
2023/10/14 08:47:25;;;;;;;49.28;8.10;;;19.20;78.90;;;;;;10474928;28;20028;-57
2023/10/14 08:52:29;;;;;;;27.75;5.47;;;19.20;78.80;;;;;;10476843;28;20554;-58
2023/10/14 08:57:31;;;;;;;35.42;6.22;;;19.20;79.20;;;;;;10474302;28;20403;-57
2023/10/14 09:02:36;;;;;;;29.33;6.82;;;19.20;79.10;;;;;;10492060;28;20450;-57
2023/10/14 09:07:38;;;;;;;29.27;6.18;;;19.20;79.30;;;;;;10493020;28;20483;-57
2023/10/14 09:12:41;;;;;;;46.20;7.05;;;19.30;79.30;;;;;;10498022;28;20041;-57
2023/10/14 09:17:43;;;;;;;38.88;6.75;;;19.30;79.30;;;;;;10492327;28;20046;-57
2023/10/14 09:22:46;;;;;;;25.17;5.10;;;19.30;79.40;;;;;;10492787;28;20028;-57
2023/10/14 09:27:48;;;;;;;35.08;8.75;;;19.40;79.30;;;;;;10492335;28;20029;-58
2023/10/14 09:32:51;;;;;;;22.88;8.23;;;19.40;79.00;;;;;;10492417;28;20463;-61
2023/10/14 09:37:52;;;;;;;19.23;8.15;;;19.40;78.10;;;;;;10474529;28;20029;-60
2023/10/14 09:42:54;;;;;;;37.58;8.15;;;19.30;76.70;;;;;;10502410;28;20028;-60
2023/10/14 09:47:57;;;;;;;35.20;6.93;;;19.30;75.70;;;;;;10459610;28;20410;-57
2023/10/14 09:53:01;;;;;;;33.47;8.50;;;19.30;75.30;;;;;;10475416;28;20029;-57
2023/10/14 09:58:04;;;;;;;30.15;7.68;;;19.30;75.70;;;;;;10485877;28;20492;-58
2023/10/14 10:03:06;;;;;;;22.77;6.05;;;19.40;76.50;;;;;;10470991;28;20079;-57
2023/10/14 10:08:39;;;;;;;34.60;7.18;;;19.40;75.70;;;;;;10491461;28;20028;-58
2023/10/14 10:13:40;;;;;;;31.63;6.22;;;19.40;75.60;;;;;;10473148;28;20039;-58
2023/10/14 10:18:56;;;;;;;31.65;6.65;;;19.40;76.20;;;;;;10490111;28;20059;-58
2023/10/14 10:24:09;;;;;;;31.80;6.78;;;19.30;76.30;;;;;;10489659;28;20082;-58
2023/10/14 10:29:22;;;;;;;29.35;7.50;;;19.20;76.50;;;;;;10473203;28;20645;-56
2023/10/14 10:34:24;;;;;;;34.25;7.72;;;19.30;76.60;;;;;;10490491;28;20519;-57
2023/10/14 10:39:25;;;;;;;28.40;6.32;;;19.30;76.70;;;;;;10501698;28;20035;-57
2023/10/14 10:44:33;;;;;;;24.10;6.57;;;19.40;76.90;;;;;;10472712;28;20036;-58
2023/10/14 10:49:49;;;;;;;25.40;7.47;;;19.40;76.90;;;;;;10473315;28;20041;-58
2023/10/14 10:54:51;;;;;;;17.95;5.80;;;19.50;77.00;;;;;;10504719;28;20029;-58
2023/10/14 10:59:54;;;;;;;16.70;4.63;;;19.50;77.20;;;;;;10474850;28;20467;-58
2023/10/14 11:04:55;;;;;;;26.48;5.43;;;19.50;77.00;;;;;;10497377;28;20218;-58
2023/10/14 11:09:56;;;;;;;19.25;4.93;;;19.50;76.20;;;;;;10502602;28;20029;-59
2023/10/14 11:14:58;;;;;;;24.92;5.15;;;19.50;76.60;;;;;;10497434;28;20036;-61
2023/10/14 11:19:59;;;;;;;18.40;5.63;;;19.40;76.50;;;;;;10496604;28;20045;-57
2023/10/14 11:24:59;;;;;;;19.88;4.63;;;19.40;76.20;;;;;;10479098;28;20025;-59
2023/10/14 11:30:00;;;;;;;23.33;5.97;;;19.40;76.30;;;;;;10486198;28;20043;-59
2023/10/14 11:35:03;;;;;;;14.20;4.32;;;19.30;76.40;;;;;;10475469;28;20025;-59
2023/10/14 11:40:13;;;;;;;19.80;4.40;;;19.30;76.30;;;;;;10481486;28;20035;-59
2023/10/14 11:45:17;;;;;;;18.92;4.97;;;19.30;76.40;;;;;;10494989;28;20059;-58
2023/10/14 11:50:18;;;;;;;20.98;4.28;;;19.30;76.40;;;;;;10478951;28;20387;-59
2023/10/14 11:55:20;;;;;;;21.17;5.00;;;19.40;76.70;;;;;;10484622;28;20027;-59
2023/10/14 12:00:21;;;;;;;24.15;5.13;;;19.40;76.80;;;;;;10485494;28;20436;-59
2023/10/14 12:05:22;;;;;;;17.30;4.13;;;19.40;76.90;;;;;;10495495;28;20518;-58
2023/10/14 12:10:26;;;;;;;20.67;4.22;;;19.50;77.20;;;;;;10500523;28;20020;-59
2023/10/14 12:15:28;;;;;;;15.75;6.13;;;19.50;76.70;;;;;;10490718;28;20104;-58
2023/10/14 12:20:31;;;;;;;25.73;5.18;;;19.50;77.00;;;;;;10495284;28;20075;-58
2023/10/14 12:25:32;;;;;;;24.02;6.13;;;19.60;77.00;;;;;;10494949;28;20040;-58
2023/10/14 12:30:39;;;;;;;12.48;3.60;;;19.60;76.90;;;;;;10490906;28;20483;-58
2023/10/14 12:35:40;;;;;;;15.35;3.75;;;19.50;76.60;;;;;;10491641;28;20439;-58
2023/10/14 12:40:43;;;;;;;15.48;3.83;;;19.50;76.60;;;;;;10477832;28;20032;-58
2023/10/14 12:45:49;;;;;;;14.10;4.35;;;19.50;76.50;;;;;;10494560;28;20467;-58
2023/10/14 12:50:51;;;;;;;20.52;4.15;;;19.50;76.50;;;;;;10493894;28;20086;-58
2023/10/14 12:55:52;;;;;;;9.55;3.38;;;19.40;75.90;;;;;;10499401;28;20028;-59
2023/10/14 13:00:52;;;;;;;12.00;3.83;;;19.40;76.20;;;;;;10482781;28;20040;-61
2023/10/14 13:05:53;;;;;;;13.65;2.97;;;19.40;76.00;;;;;;10492530;28;20059;-58
2023/10/14 13:10:54;;;;;;;16.05;3.42;;;19.40;74.20;;;;;;10492176;28;20028;-58
2023/10/14 13:15:54;;;;;;;18.25;3.55;;;19.40;72.80;;;;;;10492440;28;20049;-61
2023/10/14 13:20:58;;;;;;;12.85;3.10;;;19.40;72.50;;;;;;10492082;28;20032;-61
2023/10/14 13:25:59;;;;;;;13.05;3.85;;;19.40;72.80;;;;;;10485733;28;21258;-61
2023/10/14 13:30:59;;;;;;;20.67;3.58;;;19.40;73.00;;;;;;10491315;28;20040;-61
2023/10/14 13:36:00;;;;;;;15.57;3.20;;;19.30;73.40;;;;;;10492196;28;20020;-61
2023/10/14 13:41:03;;;;;;;25.40;4.75;;;19.30;73.70;;;;;;10491811;28;20480;-57
2023/10/14 13:46:04;;;;;;;25.15;4.93;;;19.40;74.00;;;;;;10491681;28;20028;-57
2023/10/14 13:51:05;;;;;;;15.77;4.18;;;19.40;73.90;;;;;;10491251;28;20375;-57
2023/10/14 13:56:10;;;;;;;20.73;4.20;;;19.40;73.90;;;;;;10496455;28;20166;-57
2023/10/14 14:01:11;;;;;;;17.25;4.13;;;19.30;73.90;;;;;;10477500;28;20047;-59
2023/10/14 14:06:12;;;;;;;13.05;4.13;;;19.30;74.20;;;;;;10473561;28;20468;-57
2023/10/14 14:11:13;;;;;;;14.20;4.13;;;19.20;74.30;;;;;;10494961;28;20025;-58
2023/10/14 14:16:13;;;;;;;10.18;4.10;;;19.20;74.50;;;;;;10491524;28;20040;-57
2023/10/14 14:21:18;;;;;;;11.98;3.15;;;19.20;74.70;;;;;;10490952;28;20040;-57
2023/10/14 14:26:19;;;;;;;11.48;3.42;;;19.20;74.80;;;;;;10490857;28;20107;-57
2023/10/14 14:31:20;;;;;;;15.38;4.88;;;19.10;74.80;;;;;;10461135;28;20503;-58
2023/10/14 14:36:22;;;;;;;19.45;2.78;;;19.10;74.80;;;;;;10490673;28;20036;-58
2023/10/14 14:41:25;;;;;;;11.13;3.25;;;19.10;74.90;;;;;;10502350;28;20151;-58
2023/10/14 14:46:29;;;;;;;10.10;2.92;;;19.00;74.90;;;;;;10490760;28;20708;-58
2023/10/14 14:51:29;;;;;;;10.52;2.58;;;19.10;74.90;;;;;;10488115;28;20460;-58
2023/10/14 14:56:30;;;;;;;8.52;2.47;;;19.00;74.80;;;;;;10495817;28;20021;-58
2023/10/14 15:01:33;;;;;;;9.90;2.63;;;19.00;74.90;;;;;;10487211;28;20027;-57
2023/10/14 15:06:35;;;;;;;9.50;2.83;;;19.00;75.00;;;;;;10490558;28;20029;-58
2023/10/14 15:11:36;;;;;;;7.60;2.55;;;19.00;74.90;;;;;;10477247;28;20063;-57
2023/10/14 15:16:37;;;;;;;8.50;2.83;;;18.90;74.80;;;;;;10489995;28;20063;-57
2023/10/14 15:21:38;;;;;;;5.70;1.92;;;18.90;74.80;;;;;;10489545;28;20373;-58
2023/10/14 15:26:38;;;;;;;7.30;2.33;;;19.00;75.10;;;;;;10489903;28;20025;-57
2023/10/14 15:31:39;;;;;;;4.00;2.03;;;18.90;74.90;;;;;;10489302;28;20021;-57
2023/10/14 15:36:43;;;;;;;5.95;2.55;;;18.90;75.00;;;;;;10491342;28;20640;-57
2023/10/14 15:41:47;;;;;;;7.55;1.90;;;18.90;75.00;;;;;;10517772;28;20426;-57
2023/10/14 15:46:47;;;;;;;5.82;2.05;;;18.90;75.10;;;;;;10501504;28;20028;-57
2023/10/14 15:51:54;;;;;;;6.82;2.05;;;18.90;75.40;;;;;;10498649;28;20055;-58
2023/10/14 15:56:55;;;;;;;10.10;2.78;;;18.80;75.40;;;;;;10499533;28;20047;-57
2023/10/14 16:01:57;;;;;;;7.18;3.17;;;18.90;75.70;;;;;;10485007;28;20032;-58
2023/10/14 16:06:58;;;;;;;6.07;2.50;;;18.90;75.60;;;;;;10496322;28;20071;-57
2023/10/14 16:11:59;;;;;;;5.28;1.92;;;18.80;75.50;;;;;;10500829;28;20029;-57
2023/10/14 16:17:00;;;;;;;18.45;3.15;;;18.80;75.60;;;;;;10477838;28;20044;-59
2023/10/14 16:22:02;;;;;;;12.45;2.30;;;18.80;75.20;;;;;;10488536;28;20064;-60
2023/10/14 16:27:03;;;;;;;10.90;2.80;;;18.90;74.80;;;;;;10485443;28;20515;-58
2023/10/14 16:32:04;;;;;;;12.07;2.95;;;19.10;74.00;;;;;;10477824;28;20033;-57
2023/10/14 16:37:06;;;;;;;12.23;4.25;;;19.20;74.00;;;;;;10488950;28;20090;-57
2023/10/14 16:42:06;;;;;;;99.35;58.22;;;19.30;74.60;;;;;;10494879;28;20043;-58
2023/10/14 16:47:08;;;;;;;42.15;21.23;;;19.40;76.60;;;;;;10469433;28;20028;-57
2023/10/14 16:52:09;;;;;;;28.02;16.50;;;19.30;78.30;;;;;;10475091;28;20051;-56
2023/10/14 16:57:09;;;;;;;27.85;13.43;;;19.40;78.70;;;;;;10477708;28;20028;-57
2023/10/14 17:02:10;;;;;;;28.63;12.48;;;19.50;75.80;;;;;;10479909;28;20055;-57
2023/10/14 17:07:11;;;;;;;38.20;13.32;;;19.80;76.00;;;;;;10493499;28;20058;-56
2023/10/14 17:12:12;;;;;;;29.52;14.80;;;19.90;76.40;;;;;;10497896;28;20598;-57
2023/10/14 17:17:12;;;;;;;28.67;12.50;;;20.00;76.00;;;;;;10493128;28;20668;-56
2023/10/14 17:22:13;;;;;;;26.70;12.38;;;20.10;75.70;;;;;;10492676;28;20400;-56
2023/10/14 17:27:15;;;;;;;24.80;11.45;;;19.90;76.10;;;;;;10492895;28;20040;-57
2023/10/14 17:32:15;;;;;;;22.48;12.15;;;19.70;76.40;;;;;;10492222;28;20452;-57
2023/10/14 17:37:16;;;;;;;25.67;10.55;;;19.60;76.60;;;;;;10491791;28;20051;-58
2023/10/14 17:42:17;;;;;;;23.13;10.30;;;19.40;76.70;;;;;;10502881;28;20036;-58
2023/10/14 17:47:17;;;;;;;26.55;10.55;;;19.40;77.00;;;;;;10474300;28;20035;-57
2023/10/14 17:52:18;;;;;;;21.10;9.88;;;19.30;77.10;;;;;;10497575;28;20024;-58
2023/10/14 17:57:19;;;;;;;16.95;8.93;;;19.20;77.10;;;;;;10491680;28;20509;-59
2023/10/14 18:02:20;;;;;;;18.40;9.38;;;19.20;76.60;;;;;;10461779;28;20498;-58
2023/10/14 18:07:21;;;;;;;17.88;10.43;;;19.10;76.60;;;;;;10490865;28;20554;-58
2023/10/14 18:12:22;;;;;;;22.88;10.05;;;19.10;76.50;;;;;;10489413;28;20031;-59
2023/10/14 18:17:22;;;;;;;21.50;8.60;;;19.00;76.20;;;;;;10490352;28;20048;-58
2023/10/14 18:22:23;;;;;;;15.45;7.50;;;19.10;75.60;;;;;;10491108;28;20095;-58
2023/10/14 18:27:24;;;;;;;14.73;8.25;;;19.10;76.00;;;;;;10489760;28;20161;-58
2023/10/14 18:32:24;;;;;;;14.82;6.43;;;19.10;76.10;;;;;;10474773;28;20396;-58
2023/10/14 18:37:25;;;;;;;16.02;6.57;;;19.10;76.10;;;;;;10490342;28;20375;-58
2023/10/14 18:42:26;;;;;;;17.25;6.47;;;19.10;76.20;;;;;;10503014;28;20028;-58
2023/10/14 18:47:27;;;;;;;15.25;6.53;;;19.10;76.30;;;;;;10490292;28;20471;-58
2023/10/14 18:52:27;;;;;;;16.75;6.72;;;19.10;76.40;;;;;;10495775;28;20472;-57
2023/10/14 18:57:28;;;;;;;13.25;6.18;;;19.10;76.40;;;;;;10490423;28;20032;-58
2023/10/14 19:02:29;;;;;;;18.60;5.68;;;19.00;76.50;;;;;;10490538;28;20028;-57
2023/10/14 19:07:29;;;;;;;9.73;5.72;;;19.00;76.50;;;;;;10489586;28;20416;-58
2023/10/14 19:12:30;;;;;;;16.77;5.47;;;19.00;76.40;;;;;;10497920;28;20363;-57
2023/10/14 19:17:31;;;;;;;12.52;6.15;;;19.00;76.30;;;;;;10494645;28;20373;-58
2023/10/14 19:22:33;;;;;;;11.52;5.60;;;18.90;76.10;;;;;;10495751;28;20028;-58
2023/10/14 19:27:34;;;;;;;10.25;5.18;;;18.90;76.10;;;;;;10477152;28;20101;-58
2023/10/14 19:32:38;;;;;;;13.52;5.30;;;18.80;76.10;;;;;;10482531;28;20052;-58
2023/10/14 19:37:39;;;;;;;13.10;5.57;;;18.80;76.00;;;;;;10502848;28;20372;-58
2023/10/14 19:42:46;;;;;;;9.40;4.53;;;18.80;75.90;;;;;;10508527;28;20073;-58
2023/10/14 19:47:47;;;;;;;7.93;4.85;;;18.80;75.80;;;;;;10474032;28;20097;-58
2023/10/14 19:52:47;;;;;;;7.53;4.30;;;18.70;75.70;;;;;;10484166;28;20108;-58
2023/10/14 19:57:53;;;;;;;13.40;4.97;;;18.70;75.70;;;;;;10493310;28;20414;-58
2023/10/14 20:02:59;;;;;;;9.57;3.83;;;18.80;75.70;;;;;;10465610;28;20113;-58
2023/10/14 20:08:02;;;;;;;7.53;4.25;;;18.70;75.50;;;;;;10497065;28;20033;-57
2023/10/14 20:13:03;;;;;;;9.05;3.92;;;18.70;75.50;;;;;;10498992;28;20028;-56
2023/10/14 20:18:04;;;;;;;11.10;4.47;;;18.70;75.40;;;;;;10493134;28;20048;-57
2023/10/14 20:23:08;;;;;;;8.88;3.55;;;18.70;75.40;;;;;;10494944;28;20032;-57
2023/10/14 20:28:13;;;;;;;8.38;4.38;;;18.70;75.30;;;;;;10495245;28;20059;-58
2023/10/14 20:33:17;;;;;;;7.95;4.60;;;18.60;75.20;;;;;;10495695;28;20025;-57
2023/10/14 20:38:18;;;;;;;7.57;3.63;;;18.70;75.20;;;;;;10473150;28;20030;-58
2023/10/14 20:43:20;;;;;;;10.05;4.00;;;18.60;75.30;;;;;;10503084;28;20494;-58
2023/10/14 20:48:20;;;;;;;7.97;3.70;;;18.60;75.30;;;;;;10476484;28;20447;-57
2023/10/14 20:53:21;;;;;;;5.63;3.13;;;18.60;75.20;;;;;;10499728;28;20030;-58
2023/10/14 20:58:22;;;;;;;7.65;3.53;;;18.60;75.10;;;;;;10486539;28;20033;-57
2023/10/14 21:03:25;;;;;;;6.50;2.60;;;18.60;75.10;;;;;;10491351;28;20037;-58
2023/10/14 21:08:27;;;;;;;9.20;4.15;;;18.60;75.00;;;;;;10498046;28;20032;-58
2023/10/14 21:13:27;;;;;;;7.43;3.75;;;18.60;74.90;;;;;;10494131;28;20032;-58
2023/10/14 21:18:32;;;;;;;7.45;3.97;;;18.50;74.70;;;;;;10474924;28;20121;-57
2023/10/14 21:23:34;;;;;;;5.30;2.80;;;18.50;74.60;;;;;;10475380;28;20035;-57
2023/10/14 21:28:34;;;;;;;4.57;2.88;;;18.50;75.30;;;;;;10459945;28;20036;-58
2023/10/14 21:33:35;;;;;;;5.40;2.90;;;18.50;74.50;;;;;;10491331;28;20024;-57
2023/10/14 21:38:36;;;;;;;5.45;2.33;;;18.50;74.70;;;;;;10497340;28;20036;-57
2023/10/14 21:43:38;;;;;;;5.95;2.65;;;18.50;74.70;;;;;;10497957;28;20025;-58
2023/10/14 21:48:39;;;;;;;9.20;3.85;;;18.50;74.50;;;;;;10471853;28;20032;-58
2023/10/14 21:53:40;;;;;;;6.72;3.08;;;18.50;74.40;;;;;;10477195;28;20433;-57
2023/10/14 21:58:41;;;;;;;5.82;2.65;;;18.40;74.30;;;;;;10490327;28;20765;-58
2023/10/14 22:03:45;;;;;;;6.82;2.85;;;18.40;74.40;;;;;;10473920;28;20039;-57
2023/10/14 22:08:46;;;;;;;5.15;2.95;;;18.40;74.40;;;;;;10496094;28;20119;-58
2023/10/14 22:13:48;;;;;;;5.38;3.20;;;18.40;74.40;;;;;;10491654;28;20027;-58
2023/10/14 22:18:51;;;;;;;4.88;2.10;;;18.40;74.40;;;;;;10490971;28;20041;-58
2023/10/14 22:23:51;;;;;;;5.78;2.30;;;18.40;74.20;;;;;;10491270;28;20048;-58
2023/10/14 22:28:53;;;;;;;5.53;2.92;;;18.40;74.20;;;;;;10490804;28;20028;-58
2023/10/14 22:33:54;;;;;;;5.82;3.05;;;18.40;74.30;;;;;;10491374;28;20032;-56
2023/10/14 22:38:54;;;;;;;7.30;2.80;;;18.40;74.50;;;;;;10499301;28;20028;-58
2023/10/14 22:43:55;;;;;;;7.40;3.20;;;18.30;74.50;;;;;;10493747;28;20089;-58
2023/10/14 22:48:56;;;;;;;4.30;2.30;;;18.30;74.50;;;;;;10495061;28;20029;-58
2023/10/14 22:53:57;;;;;;;4.18;2.30;;;18.30;74.40;;;;;;10504440;28;20046;-58
2023/10/14 22:58:58;;;;;;;4.32;2.00;;;18.30;74.90;;;;;;10487783;28;20396;-57
2023/10/14 23:03:59;;;;;;;5.65;2.22;;;18.30;74.30;;;;;;10480830;28;20429;-58
2023/10/14 23:09:00;;;;;;;8.90;2.50;;;18.30;74.40;;;;;;10503921;28;20028;-58
2023/10/14 23:14:01;;;;;;;4.43;1.98;;;18.30;74.20;;;;;;10498459;28;20079;-57
2023/10/14 23:19:01;;;;;;;3.28;2.03;;;18.30;74.30;;;;;;10428457;28;20489;-58
2023/10/14 23:24:05;;;;;;;5.78;2.20;;;18.30;74.20;;;;;;10415662;28;20029;-58
2023/10/14 23:29:06;;;;;;;5.57;2.20;;;18.30;74.40;;;;;;10413463;28;20438;-58
2023/10/14 23:34:07;;;;;;;4.63;2.00;;;18.20;74.30;;;;;;10415002;28;20033;-58
2023/10/14 23:39:16;;;;;;;5.15;2.65;;;18.20;74.40;;;;;;10423851;28;20399;-58
2023/10/14 23:44:18;;;;;;;3.35;1.88;;;18.20;74.30;;;;;;10415055;28;20044;-57
2023/10/14 23:49:18;;;;;;;3.85;2.28;;;18.20;74.30;;;;;;10414018;28;20456;-57
2023/10/14 23:54:19;;;;;;;5.97;2.10;;;18.20;74.30;;;;;;10430008;28;20089;-58
2023/10/14 23:59:20;;;;;;;2.97;1.67;;;18.20;74.40;;;;;;10411304;28;20036;-57
